createdAt,value
2022-11-05T00:00:32.811Z,4.03
2022-11-05T00:03:19.100Z,4.20
2022-11-05T00:06:06.958Z,4.72
2022-11-05T00:08:52.541Z,4.32
2022-11-05T00:11:40.451Z,4.32
2022-11-05T00:14:25.761Z,3.73
2022-11-05T00:16:53.444Z,3.42
2022-11-05T00:19:23.543Z,3.00
2022-11-05T00:22:08.943Z,2.70
2022-11-05T00:24:54.246Z,2.63
2022-11-05T00:27:22.106Z,2.03
2022-11-05T00:29:49.800Z,2.60
2022-11-05T00:32:17.640Z,3.38
2022-11-05T00:34:46.633Z,4.65
2022-11-05T00:37:14.563Z,4.50
2022-11-05T00:39:42.202Z,3.47
2022-11-05T00:42:27.770Z,4.28
2022-11-05T00:45:04.392Z,4.13
2022-11-05T00:47:51.447Z,3.78
2022-11-05T00:50:22.385Z,2.70
2022-11-05T00:52:56.986Z,3.20
2022-11-05T00:55:26.162Z,3.97
2022-11-05T00:57:53.988Z,3.80
2022-11-05T01:00:23.441Z,2.78
2022-11-05T01:02:51.397Z,2.70
2022-11-05T01:05:21.118Z,3.10
2022-11-05T01:07:48.806Z,2.30
2022-11-05T01:10:16.712Z,2.13
2022-11-05T01:12:44.820Z,1.92
2022-11-05T01:15:12.508Z,2.08
2022-11-05T01:17:40.348Z,2.30
2022-11-05T01:20:08.778Z,2.20
2022-11-05T01:22:37.885Z,2.33
2022-11-05T01:25:07.358Z,2.33
2022-11-05T01:27:36.287Z,1.98
2022-11-05T01:30:05.907Z,2.20
2022-11-05T01:32:34.714Z,2.25
2022-11-05T01:35:02.509Z,2.47
2022-11-05T01:37:30.716Z,2.75
2022-11-05T01:39:59.883Z,2.50
2022-11-05T01:42:28.716Z,2.30
2022-11-05T01:45:03.273Z,3.70
2022-11-05T01:47:42.636Z,3.47
2022-11-05T01:50:23.765Z,3.88
2022-11-05T01:52:55.139Z,6.53
2022-11-05T01:55:30.582Z,6.07
2022-11-05T01:57:59.777Z,7.35
2022-11-05T02:00:27.947Z,6.07
2022-11-05T02:02:55.744Z,6.90
2022-11-05T02:05:23.963Z,7.22
2022-11-05T02:07:53.523Z,7.43
2022-11-05T02:10:22.380Z,7.45
2022-11-05T02:12:51.493Z,6.80
2022-11-05T02:15:29.285Z,5.90
2022-11-05T02:18:12.400Z,6.15
2022-11-05T02:20:50.964Z,5.20
2022-11-05T02:23:53.397Z,4.03
2022-11-05T02:26:59.502Z,3.50
2022-11-05T02:30:06.784Z,3.15
2022-11-05T02:32:49.915Z,2.80
2022-11-05T02:35:31.431Z,2.90
2022-11-05T02:38:07.849Z,2.38
2022-11-05T02:40:45.426Z,2.63
2022-11-05T02:43:22.176Z,2.75
2022-11-05T02:46:00.681Z,2.88
2022-11-05T02:48:37.471Z,3.03
2022-11-05T02:51:10.271Z,3.47
2022-11-05T02:53:46.336Z,3.85
2022-11-05T02:56:19.465Z,3.08
2022-11-05T02:58:47.133Z,3.05
2022-11-05T03:01:15.086Z,3.00
2022-11-05T03:03:48.360Z,2.75
2022-11-05T03:06:30.436Z,3.20
2022-11-05T03:09:24.581Z,3.53
2022-11-05T03:12:02.849Z,2.33
2022-11-05T03:14:38.768Z,2.87
2022-11-05T03:17:13.910Z,2.83
2022-11-05T03:19:50.280Z,3.35
2022-11-05T03:22:24.402Z,3.40
2022-11-05T03:24:56.552Z,3.83
2022-11-05T03:27:28.531Z,3.67
2022-11-05T03:30:01.716Z,3.40
2022-11-05T03:32:32.955Z,3.35
2022-11-05T03:35:07.142Z,3.17
2022-11-05T03:37:39.313Z,3.05
2022-11-05T03:40:10.356Z,2.90
2022-11-05T03:42:42.471Z,2.70
2022-11-05T03:45:15.375Z,3.13
2022-11-05T03:47:46.757Z,2.70
2022-11-05T03:50:21.813Z,2.22
2022-11-05T03:52:54.474Z,2.57
2022-11-05T03:55:27.145Z,2.50
2022-11-05T03:57:57.034Z,2.47
2022-11-05T04:00:24.896Z,2.60
2022-11-05T04:02:52.982Z,2.50
2022-11-05T04:05:22.369Z,3.07
2022-11-05T04:08:12.959Z,2.72
2022-11-05T04:11:01.459Z,2.70
2022-11-05T04:13:30.415Z,2.13
2022-11-05T04:16:15.534Z,2.55
2022-11-05T04:18:44.026Z,2.40
2022-11-05T04:21:30.564Z,2.55
2022-11-05T04:24:12.838Z,2.70
2022-11-05T04:26:43.584Z,3.25
2022-11-05T04:29:29.202Z,3.33
2022-11-05T04:31:57.883Z,2.77
2022-11-05T04:34:25.722Z,2.70
2022-11-05T04:36:54.817Z,3.03
2022-11-05T04:39:22.870Z,3.20
2022-11-05T04:41:50.511Z,3.00
2022-11-05T04:44:18.312Z,3.67
2022-11-05T04:46:46.451Z,4.47
2022-11-05T04:49:14.328Z,3.05
2022-11-05T04:51:42.056Z,4.45
2022-11-05T04:54:11.203Z,4.40
2022-11-05T04:56:38.933Z,3.50
2022-11-05T04:59:06.703Z,2.83
2022-11-05T05:01:34.462Z,3.03
2022-11-05T05:04:02.557Z,3.00
2022-11-05T05:06:30.284Z,2.63
2022-11-05T05:08:57.941Z,2.70
2022-11-05T05:11:27.547Z,4.50
2022-11-05T05:13:55.184Z,4.30
2022-11-05T05:16:25.192Z,3.15
2022-11-05T05:18:54.426Z,3.20
2022-11-05T05:21:41.814Z,3.10
2022-11-05T05:24:11.402Z,3.90
2022-11-05T05:26:42.059Z,4.38
2022-11-05T05:29:10.497Z,8.82
2022-11-05T05:31:38.802Z,7.35
2022-11-05T05:34:07.711Z,6.27
2022-11-05T05:36:35.670Z,9.90
2022-11-05T05:39:05.993Z,15.45
2022-11-05T05:41:33.993Z,12.55
2022-11-05T05:44:03.197Z,8.30
2022-11-05T05:46:30.864Z,5.63
2022-11-05T05:48:58.517Z,4.63
2022-11-05T05:51:26.492Z,4.60
2022-11-05T05:53:54.879Z,4.40
2022-11-05T05:56:22.809Z,4.65
2022-11-05T05:58:50.805Z,4.27
2022-11-05T06:01:20.334Z,4.07
2022-11-05T06:03:48.970Z,4.05
2022-11-05T06:06:19.866Z,4.90
2022-11-05T06:08:47.930Z,5.18
2022-11-05T06:11:15.853Z,5.27
2022-11-05T06:13:43.529Z,5.10
2022-11-05T06:16:11.512Z,5.05
2022-11-05T06:18:40.946Z,5.32
2022-11-05T06:21:10.992Z,5.13
2022-11-05T06:23:41.030Z,4.80
2022-11-05T06:26:10.783Z,5.82
2022-11-05T06:28:38.449Z,6.00
2022-11-05T06:31:11.573Z,5.68
2022-11-05T06:33:41.225Z,6.40
2022-11-05T06:36:13.827Z,5.00
2022-11-05T06:38:41.464Z,5.15
2022-11-05T06:41:10.745Z,4.72
2022-11-05T06:43:39.723Z,5.57
2022-11-05T06:46:08.059Z,5.43
2022-11-05T06:48:36.096Z,4.70
2022-11-05T06:51:09.764Z,4.70
2022-11-05T06:53:37.994Z,4.47
2022-11-05T06:56:06.970Z,4.55
2022-11-05T06:58:35.196Z,4.78
2022-11-05T07:01:03.919Z,4.93
2022-11-05T07:03:32.284Z,5.22
2022-11-05T07:06:01.419Z,5.20
2022-11-05T07:08:32.592Z,5.95
2022-11-05T07:11:00.800Z,10.02
2022-11-05T07:13:28.807Z,11.60
2022-11-05T07:15:57.243Z,9.23
2022-11-05T07:18:25.160Z,8.13
2022-11-05T07:20:52.852Z,7.28
2022-11-05T07:23:20.637Z,6.78
2022-11-05T07:25:51.670Z,9.37
2022-11-05T07:28:19.490Z,9.57
2022-11-05T07:30:48.215Z,8.27
2022-11-05T07:33:15.946Z,8.10
2022-11-05T07:35:43.633Z,8.10
2022-11-05T07:38:11.761Z,8.43
2022-11-05T07:40:39.498Z,7.63
2022-11-05T07:43:08.652Z,7.95
2022-11-05T07:45:36.610Z,7.50
2022-11-05T07:48:08.424Z,8.18
2022-11-05T07:50:37.526Z,8.13
2022-11-05T07:53:07.031Z,7.38
2022-11-05T07:55:35.749Z,6.00
2022-11-05T07:58:06.446Z,6.15
2022-11-05T08:00:36.662Z,9.93
2022-11-05T08:03:08.369Z,6.93
2022-11-05T08:05:39.058Z,7.78
2022-11-05T08:08:08.506Z,7.13
2022-11-05T08:10:37.020Z,7.82
2022-11-05T08:13:05.650Z,6.20
2022-11-05T08:15:33.397Z,5.83
2022-11-05T08:18:03.482Z,6.68
2022-11-05T08:20:31.378Z,6.13
2022-11-05T08:22:59.978Z,6.70
2022-11-05T08:25:27.595Z,6.22
2022-11-05T08:27:59.539Z,5.00
2022-11-05T08:30:27.287Z,5.03
2022-11-05T08:32:58.361Z,4.75
2022-11-05T08:35:28.072Z,5.55
2022-11-05T08:37:58.718Z,5.80
2022-11-05T08:40:26.881Z,5.20
2022-11-05T08:42:57.510Z,4.72
2022-11-05T08:45:25.515Z,3.97
2022-11-05T08:47:59.759Z,3.85
2022-11-05T08:50:29.072Z,4.05
2022-11-05T08:52:56.998Z,4.17
2022-11-05T08:55:24.999Z,3.28
2022-11-05T08:57:56.180Z,3.65
2022-11-05T09:00:23.932Z,3.60
2022-11-05T09:02:51.736Z,4.18
2022-11-05T09:05:19.549Z,4.20
2022-11-05T09:07:48.672Z,4.80
2022-11-05T09:10:16.422Z,4.82
2022-11-05T09:12:44.620Z,4.50
2022-11-05T09:15:12.831Z,5.13
2022-11-05T09:17:41.268Z,4.00
2022-11-05T09:20:11.910Z,4.72
2022-11-05T09:22:43.263Z,3.97
2022-11-05T09:25:12.612Z,4.78
2022-11-05T09:27:40.431Z,4.30
2022-11-05T09:30:09.495Z,4.10
2022-11-05T09:32:37.121Z,4.70
2022-11-05T09:35:05.763Z,4.13
2022-11-05T09:37:33.933Z,4.57
2022-11-05T09:40:01.541Z,4.20
2022-11-05T09:42:34.297Z,5.60
2022-11-05T09:45:04.503Z,5.32
2022-11-05T09:47:35.553Z,5.82
2022-11-05T09:50:07.584Z,4.30
2022-11-05T09:52:36.135Z,3.38
2022-11-05T09:55:05.017Z,3.90
2022-11-05T09:57:46.604Z,3.40
2022-11-05T10:00:16.892Z,3.13
2022-11-05T10:02:50.280Z,3.72
2022-11-05T10:05:19.809Z,2.90
2022-11-05T10:07:50.976Z,3.40
2022-11-05T10:10:40.377Z,3.28
2022-11-05T10:13:20.551Z,2.80
2022-11-05T10:15:54.983Z,3.55
2022-11-05T10:18:28.107Z,3.30
2022-11-05T10:20:56.784Z,3.20
2022-11-05T10:23:27.186Z,3.50
2022-11-05T10:25:57.774Z,3.67
2022-11-05T10:28:28.419Z,3.28
2022-11-05T10:30:59.690Z,3.72
2022-11-05T10:33:33.364Z,3.30
2022-11-05T10:36:05.155Z,3.17
2022-11-05T10:38:34.090Z,3.20
2022-11-05T10:41:15.039Z,2.88
2022-11-05T10:43:48.667Z,3.25
2022-11-05T10:46:28.429Z,2.37
2022-11-05T10:49:20.517Z,3.05
2022-11-05T10:51:55.039Z,2.90
2022-11-05T10:54:26.185Z,3.70
2022-11-05T10:56:53.806Z,3.47
2022-11-05T10:59:24.799Z,3.23
2022-11-05T11:02:02.318Z,3.38
2022-11-05T11:04:37.476Z,3.35
2022-11-05T11:07:06.243Z,3.10
2022-11-05T11:09:36.929Z,3.22
2022-11-05T11:12:08.540Z,3.40
2022-11-05T11:14:38.033Z,3.50
2022-11-05T11:17:33.951Z,3.40
2022-11-05T11:20:23.669Z,3.53
2022-11-05T11:23:01.408Z,3.28
2022-11-05T11:25:30.901Z,3.13
2022-11-05T11:28:04.536Z,2.97
2022-11-05T11:30:35.115Z,3.35
2022-11-05T11:33:08.773Z,4.75
2022-11-05T11:35:39.188Z,3.85
2022-11-05T11:38:08.631Z,3.37
2022-11-05T11:40:38.924Z,3.20
2022-11-05T11:43:18.509Z,3.47
2022-11-05T11:45:50.391Z,3.38
2022-11-05T11:48:20.179Z,6.50
2022-11-05T11:50:49.654Z,3.30
2022-11-05T11:53:26.047Z,6.63
2022-11-05T11:56:02.587Z,6.72
2022-11-05T11:58:44.779Z,6.45
2022-11-05T12:01:48.129Z,3.55
2022-11-05T12:04:53.055Z,4.20
2022-11-05T12:07:31.307Z,3.13
2022-11-05T12:10:17.303Z,2.95
2022-11-05T12:12:58.302Z,3.20
2022-11-05T12:15:40.304Z,3.33
2022-11-05T12:18:26.246Z,3.00
2022-11-05T12:21:07.159Z,3.28
2022-11-05T12:23:54.424Z,3.00
2022-11-05T12:26:30.483Z,3.45
2022-11-05T12:29:20.717Z,2.38
2022-11-05T12:31:59.365Z,3.23
2022-11-05T12:34:41.496Z,2.28
2022-11-05T12:37:21.091Z,2.50
2022-11-05T12:40:05.013Z,2.60
2022-11-05T12:42:45.084Z,2.65
2022-11-05T12:45:30.511Z,2.40
2022-11-05T12:48:12.538Z,2.25
2022-11-05T12:50:46.147Z,2.38
2022-11-05T12:53:51.214Z,2.20
2022-11-05T12:56:26.451Z,2.42
2022-11-05T12:59:02.151Z,1.93
2022-11-05T13:01:35.185Z,1.77
2022-11-05T13:04:08.768Z,1.67
2022-11-05T13:06:40.761Z,2.17
2022-11-05T13:09:15.727Z,2.78
2022-11-05T13:11:47.230Z,2.27
2022-11-05T13:14:17.896Z,2.50
2022-11-05T13:16:48.764Z,2.67
2022-11-05T13:19:19.987Z,2.58
2022-11-05T13:21:51.729Z,2.03
2022-11-05T13:24:24.669Z,2.80
2022-11-05T13:26:56.910Z,2.70
2022-11-05T13:29:29.714Z,2.58
2022-11-05T13:32:02.959Z,3.70
2022-11-05T13:34:37.276Z,2.35
2022-11-05T13:37:25.563Z,5.30
2022-11-05T13:39:58.478Z,4.13
2022-11-05T13:42:47.448Z,2.63
2022-11-05T13:45:39.268Z,3.00
2022-11-05T13:48:23.872Z,2.83
2022-11-05T13:51:16.705Z,3.00
2022-11-05T13:54:02.536Z,3.55
2022-11-05T13:56:50.028Z,2.80
2022-11-05T13:59:41.261Z,3.03
2022-11-05T14:02:16.870Z,3.28
2022-11-05T14:04:48.451Z,2.97
2022-11-05T14:07:20.657Z,5.82
2022-11-05T14:09:54.938Z,8.65
2022-11-05T14:12:27.443Z,4.55
2022-11-05T14:15:00.125Z,2.88
2022-11-05T14:17:32.874Z,3.03
2022-11-05T14:20:38.046Z,3.75
2022-11-05T14:23:48.533Z,2.90
2022-11-05T14:26:19.485Z,4.03
2022-11-05T14:28:51.421Z,4.05
2022-11-05T14:31:47.326Z,3.60
2022-11-05T14:34:25.147Z,3.92
2022-11-05T14:37:41.455Z,3.35
2022-11-05T14:40:31.784Z,4.60
2022-11-05T14:43:02.706Z,5.20
2022-11-05T14:45:35.641Z,4.80
2022-11-05T14:48:06.297Z,4.63
2022-11-05T14:50:40.724Z,5.18
2022-11-05T14:53:13.700Z,5.63
2022-11-05T14:55:44.661Z,5.70
2022-11-05T14:58:36.820Z,3.50
2022-11-05T15:01:07.848Z,3.20
2022-11-05T15:04:06.784Z,3.40
2022-11-05T15:06:36.685Z,3.13
2022-11-05T15:09:29.870Z,3.20
2022-11-05T15:12:17.566Z,4.47
2022-11-05T15:14:57.671Z,4.53
2022-11-05T15:17:30.207Z,5.47
2022-11-05T15:20:10.389Z,5.72
2022-11-05T15:22:42.388Z,5.50
2022-11-05T15:25:18.617Z,5.93
2022-11-05T15:28:04.364Z,4.97
2022-11-05T15:30:32.433Z,6.07
2022-11-05T15:33:11.832Z,7.65
2022-11-05T15:35:41.831Z,6.57
2022-11-05T15:38:27.272Z,5.63
2022-11-05T15:40:59.887Z,6.47
2022-11-05T15:43:27.757Z,6.40
2022-11-05T15:46:07.708Z,6.00
2022-11-05T15:48:37.213Z,5.22
2022-11-05T15:51:05.111Z,5.17
2022-11-05T15:54:24.343Z,6.72
2022-11-05T15:56:51.303Z,7.45
2022-11-05T15:59:20.529Z,8.43
2022-11-05T16:01:50.957Z,8.13
2022-11-05T16:04:22.707Z,7.63
2022-11-05T16:06:52.676Z,6.22
2022-11-05T16:09:23.130Z,7.43
2022-11-05T16:12:12.882Z,11.70
2022-11-05T16:14:41.270Z,6.68
2022-11-05T16:17:20.164Z,5.73
2022-11-05T16:19:49.825Z,7.88
2022-11-05T16:22:18.311Z,10.13
2022-11-05T16:24:46.654Z,8.80
2022-11-05T16:27:19.382Z,9.55
2022-11-05T16:29:51.537Z,9.00
2022-11-05T16:32:26.886Z,10.13
2022-11-05T16:35:00.869Z,8.35
2022-11-05T16:37:30.848Z,8.52
2022-11-05T16:39:58.722Z,8.00
2022-11-05T16:42:40.620Z,8.47
2022-11-05T16:45:12.713Z,10.40
2022-11-05T16:47:40.625Z,9.90
2022-11-05T16:50:22.403Z,7.50
2022-11-05T16:52:50.514Z,6.88
2022-11-05T16:55:19.362Z,7.37
2022-11-05T16:57:51.029Z,6.78
2022-11-05T17:00:20.853Z,7.28
2022-11-05T17:02:49.084Z,8.55
2022-11-05T17:05:24.323Z,7.57
2022-11-05T17:07:52.838Z,9.07
2022-11-05T17:10:21.044Z,9.13
2022-11-05T17:12:49.290Z,9.30
2022-11-05T17:15:21.179Z,8.18
2022-11-05T17:17:49.612Z,8.07
2022-11-05T17:20:27.670Z,11.23
2022-11-05T17:22:55.818Z,13.23
2022-11-05T17:25:27.507Z,11.63
2022-11-05T17:28:00.766Z,11.32
2022-11-05T17:30:28.642Z,12.55
2022-11-05T17:32:56.603Z,13.33
2022-11-05T17:35:26.400Z,17.70
2022-11-05T17:38:27.918Z,14.32
2022-11-05T17:40:55.833Z,14.27
2022-11-05T17:43:23.498Z,13.65
2022-11-05T17:45:53.318Z,13.70
2022-11-05T17:48:22.129Z,13.77
2022-11-05T17:50:51.945Z,13.32
2022-11-05T17:53:20.850Z,11.88
2022-11-05T17:55:49.110Z,12.80
2022-11-05T17:58:17.187Z,10.40
2022-11-05T18:00:46.359Z,8.80
2022-11-05T18:03:16.009Z,7.43
2022-11-05T18:05:44.164Z,7.03
2022-11-05T18:08:13.269Z,6.63
2022-11-05T18:10:42.061Z,7.60
2022-11-05T18:13:10.776Z,8.10
2022-11-05T18:15:41.056Z,10.20
2022-11-05T18:18:09.700Z,9.88
2022-11-05T18:20:38.056Z,9.57
2022-11-05T18:23:05.992Z,10.93
2022-11-05T18:25:35.336Z,9.38
2022-11-05T18:28:03.689Z,9.18
2022-11-05T18:30:31.406Z,9.07
2022-11-05T18:32:59.208Z,9.82
2022-11-05T18:35:26.931Z,9.57
2022-11-05T18:37:54.923Z,8.18
2022-11-05T18:40:22.793Z,6.25
2022-11-05T18:42:51.818Z,6.47
2022-11-05T18:45:19.656Z,5.93
2022-11-05T18:47:47.757Z,6.97
2022-11-05T18:50:15.659Z,7.30
2022-11-05T18:52:43.454Z,8.10
2022-11-05T18:55:11.050Z,7.15
2022-11-05T18:57:39.115Z,7.32
2022-11-05T19:00:09.967Z,10.13
2022-11-05T19:02:37.754Z,12.55
2022-11-05T19:07:53.767Z,8.63
2022-11-05T19:10:21.362Z,7.38
2022-11-05T19:12:49.439Z,6.93
2022-11-05T19:15:18.800Z,6.93
2022-11-05T19:17:46.926Z,7.50
2022-11-05T19:20:14.645Z,7.72
2022-11-05T19:22:42.977Z,6.00
2022-11-05T19:25:11.762Z,6.50
2022-11-05T19:27:39.523Z,6.03
2022-11-05T19:30:07.908Z,6.10
2022-11-05T19:32:37.420Z,5.93
2022-11-05T19:35:05.623Z,5.50
2022-11-05T19:37:33.326Z,6.53
2022-11-05T19:40:01.024Z,6.22
2022-11-05T19:42:29.002Z,6.40
2022-11-05T19:45:16.749Z,5.07
2022-11-05T19:47:48.948Z,5.32
2022-11-05T19:50:16.561Z,4.90
2022-11-05T19:52:44.526Z,5.82
2022-11-05T19:55:12.506Z,4.93
2022-11-05T19:57:42.647Z,5.78
2022-11-05T20:00:13.181Z,6.22
2022-11-05T20:02:44.703Z,7.17
2022-11-05T20:05:14.372Z,10.88
2022-11-05T20:07:42.655Z,13.07
2022-11-05T20:10:11.026Z,12.18
2022-11-05T20:12:40.155Z,13.07
2022-11-05T20:15:08.907Z,10.90
2022-11-05T20:17:39.271Z,9.05
2022-11-05T20:20:11.229Z,8.32
2022-11-05T20:22:43.367Z,7.05
2022-11-05T20:25:11.614Z,7.32
2022-11-05T20:27:40.175Z,7.93
2022-11-05T20:30:11.028Z,8.02
2022-11-05T20:32:39.037Z,7.80
2022-11-05T20:35:07.274Z,8.30
2022-11-05T20:37:34.886Z,7.80
2022-11-05T20:40:07.414Z,8.37
2022-11-05T20:42:36.983Z,8.68
2022-11-05T20:45:04.976Z,9.65
2022-11-05T20:47:33.421Z,8.48
2022-11-05T20:50:00.984Z,7.93
2022-11-05T20:52:29.666Z,8.53
2022-11-05T20:54:57.820Z,9.85
2022-11-05T20:57:26.811Z,9.85
2022-11-05T20:59:54.636Z,8.80
2022-11-05T21:02:22.438Z,8.95
2022-11-05T21:04:50.122Z,8.47
2022-11-05T21:07:17.955Z,6.82
2022-11-05T21:09:45.821Z,6.53
2022-11-05T21:12:13.464Z,7.00
2022-11-05T21:14:44.572Z,6.97
2022-11-05T21:17:14.820Z,7.30
2022-11-05T21:19:42.431Z,8.77
2022-11-05T21:22:10.203Z,9.35
2022-11-05T21:24:38.052Z,9.75
2022-11-05T21:27:05.652Z,9.13
2022-11-05T21:29:33.285Z,8.63
2022-11-05T21:32:02.794Z,9.75
2022-11-05T21:34:30.452Z,8.27
2022-11-05T21:36:58.042Z,8.48
2022-11-05T21:39:26.165Z,7.47
2022-11-05T21:41:54.051Z,7.33
2022-11-05T21:44:21.714Z,7.20
2022-11-05T21:46:52.480Z,7.53
2022-11-05T21:49:21.437Z,7.90
2022-11-05T21:52:07.078Z,8.55
2022-11-05T21:54:52.314Z,8.97
2022-11-05T21:57:37.623Z,9.30
2022-11-05T22:00:07.698Z,9.60
2022-11-05T22:02:35.814Z,9.38
2022-11-05T22:05:06.236Z,8.75
2022-11-05T22:07:36.552Z,9.03
2022-11-05T22:10:09.751Z,7.55
2022-11-05T22:12:41.209Z,7.43
2022-11-05T22:15:10.260Z,7.00
2022-11-05T22:17:40.441Z,7.45
2022-11-05T22:20:13.054Z,6.27
2022-11-05T22:22:41.482Z,6.53
2022-11-05T22:25:10.169Z,6.78
2022-11-05T22:27:37.769Z,7.13
2022-11-05T22:30:06.369Z,6.78
2022-11-05T22:32:34.210Z,6.03
2022-11-05T22:35:01.896Z,7.03
2022-11-05T22:37:31.197Z,6.80
2022-11-05T22:39:59.218Z,6.53
2022-11-05T22:42:26.881Z,6.10
2022-11-05T22:44:54.544Z,7.03
2022-11-05T22:47:22.315Z,7.20
2022-11-05T22:49:50.245Z,7.10
2022-11-05T22:52:17.924Z,7.32
2022-11-05T22:54:47.834Z,7.80
2022-11-05T22:57:15.747Z,8.30
2022-11-05T22:59:43.367Z,7.90
2022-11-05T23:02:11.299Z,8.02
2022-11-05T23:04:39.819Z,8.13
2022-11-05T23:07:27.891Z,9.75
2022-11-05T23:10:14.918Z,10.43
2022-11-05T23:12:44.401Z,8.75
2022-11-05T23:15:34.492Z,8.07
2022-11-05T23:18:19.657Z,8.65
2022-11-05T23:21:05.072Z,7.88
2022-11-05T23:23:50.715Z,7.70
2022-11-05T23:26:37.481Z,8.07
2022-11-05T23:29:05.461Z,7.03
2022-11-05T23:31:50.558Z,6.88
2022-11-05T23:34:18.382Z,7.45
2022-11-05T23:37:03.624Z,7.77
2022-11-05T23:39:31.643Z,7.38
2022-11-05T23:42:17.990Z,7.82
2022-11-05T23:45:03.279Z,6.53
2022-11-05T23:47:48.663Z,6.82
2022-11-05T23:50:19.049Z,7.10
2022-11-05T23:52:46.657Z,6.53
2022-11-05T23:55:16.452Z,6.32
2022-11-05T23:57:45.692Z,6.50
